Time;durP1;ratioP1;P1;durP2;ratioP2;P2;SDS_P1;SDS_P2;PMS_P1;PMS_P2;Temp;Humidity;BMP_temperature;BMP_pressure;BME280_temperature;BME280_humidity;BME280_pressure;Samples;Min_cycle;Max_cycle;Signal;HPM_P1;HPM_P2
2020/12/07 00:00:53;;;;;;;3.08;0.80;;;9.30;96.70;;;;;;4997938;28;20760;-81
2020/12/07 00:03:21;;;;;;;2.03;0.43;;;9.30;96.70;;;;;;4996137;28;20161;-81
2020/12/07 00:05:48;;;;;;;1.45;0.40;;;9.30;96.70;;;;;;4996562;28;20667;-81
2020/12/07 00:08:15;;;;;;;0.35;0.20;;;9.30;96.70;;;;;;5002673;28;20046;-81
2020/12/07 00:10:42;;;;;;;1.58;0.30;;;9.30;96.70;;;;;;4999544;28;20034;-81
2020/12/07 00:13:09;;;;;;;1.08;0.30;;;9.30;96.70;;;;;;4997678;28;20060;-81
2020/12/07 00:15:38;;;;;;;1.20;0.35;;;9.30;96.70;;;;;;5000982;28;20037;-81
2020/12/07 00:18:06;;;;;;;1.55;0.60;;;9.40;96.70;;;;;;4984222;28;20050;-81
2020/12/07 00:20:33;;;;;;;2.15;0.40;;;9.40;96.70;;;;;;5015054;28;20042;-81
2020/12/07 00:23:01;;;;;;;2.22;0.43;;;9.40;96.70;;;;;;4999833;28;20526;-81
2020/12/07 00:25:28;;;;;;;1.58;0.60;;;9.40;96.70;;;;;;4998903;28;20120;-81
2020/12/07 00:27:55;;;;;;;1.25;0.22;;;9.20;96.70;;;;;;5012264;28;20049;-82
2020/12/07 00:30:22;;;;;;;4.43;0.77;;;9.10;96.70;;;;;;5000336;28;20041;-80
2020/12/07 00:32:49;;;;;;;6.97;0.50;;;8.70;96.70;;;;;;4998989;28;20052;-81
2020/12/07 00:35:17;;;;;;;2.55;0.50;;;8.20;96.70;;;;;;5000777;28;20034;-80
2020/12/07 00:37:44;;;;;;;2.03;0.30;;;8.10;96.70;;;;;;5001773;28;20042;-80
2020/12/07 00:40:12;;;;;;;2.38;0.30;;;8.10;96.70;;;;;;4985529;28;20073;-79
2020/12/07 00:42:39;;;;;;;2.53;1.15;;;8.20;96.70;;;;;;5000374;28;20057;-77
2020/12/07 00:45:06;;;;;;;1.38;0.70;;;8.30;96.70;;;;;;5001080;28;20041;-79
2020/12/07 00:47:37;;;;;;;3.00;0.80;;;8.40;96.70;;;;;;5003565;28;20485;-79
2020/12/07 00:50:04;;;;;;;1.80;1.33;;;8.50;96.70;;;;;;4986339;28;20052;-79
2020/12/07 00:52:32;;;;;;;1.75;0.82;;;8.50;96.70;;;;;;4984128;28;20124;-80
2020/12/07 00:55:00;;;;;;;1.75;1.33;;;8.50;96.70;;;;;;5000944;28;20057;-79
2020/12/07 00:57:28;;;;;;;2.50;0.65;;;8.50;96.70;;;;;;4986072;28;20038;-80
2020/12/07 00:59:55;;;;;;;1.95;0.50;;;8.60;96.70;;;;;;4982470;28;20161;-80
2020/12/07 01:02:23;;;;;;;2.17;1.00;;;8.60;96.70;;;;;;4986435;28;20049;-80
2020/12/07 01:04:50;;;;;;;4.03;1.60;;;8.70;96.70;;;;;;4999992;28;20094;-80
2020/12/07 01:07:17;;;;;;;3.17;1.10;;;8.70;96.70;;;;;;5000560;28;20050;-79
2020/12/07 01:09:49;;;;;;;2.35;0.50;;;8.70;96.70;;;;;;4981490;28;20065;-80
2020/12/07 01:12:18;;;;;;;2.25;0.40;;;8.70;96.70;;;;;;4999726;28;20914;-79
2020/12/07 01:14:50;;;;;;;1.05;0.35;;;8.80;96.70;;;;;;4999960;28;20048;-79
2020/12/07 01:17:18;;;;;;;2.40;0.40;;;8.80;96.70;;;;;;4984972;28;20062;-81
2020/12/07 01:19:52;;;;;;;1.95;0.68;;;8.80;96.70;;;;;;5000778;28;20164;-80
2020/12/07 01:22:29;;;;;;;2.33;0.82;;;8.90;96.70;;;;;;4998389;28;20492;-80
2020/12/07 01:25:01;;;;;;;1.50;0.65;;;8.90;96.70;;;;;;4987053;28;20125;-81
2020/12/07 01:27:35;;;;;;;1.35;0.55;;;8.80;96.70;;;;;;4984118;28;20107;-80
2020/12/07 01:30:04;;;;;;;1.30;0.50;;;8.80;96.70;;;;;;4999961;28;20069;-81
2020/12/07 01:32:32;;;;;;;1.60;0.40;;;8.90;96.70;;;;;;4982376;28;20048;-82
2020/12/07 01:35:00;;;;;;;1.50;0.30;;;8.90;96.70;;;;;;5002425;28;20133;-80
2020/12/07 01:37:27;;;;;;;0.88;0.30;;;8.90;96.70;;;;;;5000837;28;20053;-81
2020/12/07 01:39:55;;;;;;;2.90;0.50;;;8.80;96.70;;;;;;4998801;28;20046;-80
2020/12/07 01:42:23;;;;;;;0.88;0.20;;;8.80;96.70;;;;;;5001263;28;20073;-80
2020/12/07 01:44:53;;;;;;;1.15;0.45;;;8.90;96.70;;;;;;5006336;28;20050;-81
2020/12/07 01:47:22;;;;;;;1.23;0.35;;;8.90;96.70;;;;;;5000001;28;20053;-80
2020/12/07 01:49:55;;;;;;;2.78;0.63;;;8.90;96.70;;;;;;4986340;28;20137;-81
2020/12/07 01:52:25;;;;;;;1.90;0.57;;;8.90;96.70;;;;;;4998218;28;20042;-81
2020/12/07 01:54:54;;;;;;;3.45;0.50;;;8.90;96.70;;;;;;4987024;28;20053;-80
2020/12/07 01:57:27;;;;;;;2.13;0.50;;;8.90;96.70;;;;;;5000902;28;20042;-80
2020/12/07 02:00:01;;;;;;;0.95;0.50;;;9.00;96.70;;;;;;4999642;28;20116;-81
2020/12/07 02:02:28;;;;;;;1.35;0.65;;;9.00;96.70;;;;;;5000838;28;20450;-81
2020/12/07 02:04:56;;;;;;;1.10;0.47;;;9.00;96.70;;;;;;5001972;28;20089;-81
2020/12/07 02:07:24;;;;;;;2.58;0.50;;;9.00;96.70;;;;;;5001514;28;20042;-81
2020/12/07 02:09:55;;;;;;;0.98;0.40;;;8.90;96.70;;;;;;4998144;28;20989;-81
2020/12/07 02:12:22;;;;;;;2.35;0.57;;;8.90;96.70;;;;;;4999174;28;20053;-80
2020/12/07 02:14:51;;;;;;;1.45;0.40;;;8.90;96.70;;;;;;4999976;28;20174;-81
2020/12/07 02:17:19;;;;;;;0.88;0.30;;;8.90;96.70;;;;;;4997983;28;20041;-81
2020/12/07 02:19:50;;;;;;;1.92;0.25;;;8.80;96.70;;;;;;5000509;28;20050;-81
2020/12/07 02:22:19;;;;;;;1.75;0.47;;;8.80;96.70;;;;;;4982542;28;20058;-80
2020/12/07 02:24:56;;;;;;;0.73;0.50;;;8.90;96.70;;;;;;5001487;28;20139;-81
2020/12/07 02:27:28;;;;;;;1.02;0.20;;;8.90;96.70;;;;;;4982870;28;20092;-81
2020/12/07 02:29:55;;;;;;;1.13;0.38;;;8.80;96.70;;;;;;5000306;28;20437;-81
2020/12/07 02:32:22;;;;;;;2.95;0.40;;;8.80;96.70;;;;;;4999989;28;20124;-81
2020/12/07 02:34:59;;;;;;;0.85;0.28;;;8.80;96.70;;;;;;4995550;28;20092;-80
2020/12/07 02:37:33;;;;;;;1.10;0.25;;;8.90;96.70;;;;;;4985563;28;20319;-80
2020/12/07 02:40:04;;;;;;;3.45;0.40;;;8.80;96.70;;;;;;4995832;28;20128;-80
2020/12/07 02:42:33;;;;;;;1.75;0.25;;;8.80;96.70;;;;;;5002165;28;20407;-81
2020/12/07 02:45:04;;;;;;;1.05;0.17;;;8.70;96.70;;;;;;4997701;28;20279;-80
2020/12/07 02:47:32;;;;;;;2.45;0.80;;;8.70;96.70;;;;;;4998553;28;20499;-80
2020/12/07 02:50:00;;;;;;;2.38;0.98;;;8.70;96.70;;;;;;4995254;28;20381;-80
2020/12/07 02:52:28;;;;;;;1.42;0.65;;;8.80;96.70;;;;;;5005853;28;20045;-81
2020/12/07 02:54:57;;;;;;;0.60;0.40;;;8.80;96.70;;;;;;4999464;28;20069;-80
2020/12/07 02:57:28;;;;;;;1.60;0.30;;;8.80;96.70;;;;;;4998943;28;20381;-80
2020/12/07 02:59:56;;;;;;;3.10;0.40;;;8.90;96.70;;;;;;4999405;28;20050;-80
2020/12/07 03:02:26;;;;;;;0.47;0.22;;;8.90;96.70;;;;;;5000356;28;20084;-80
2020/12/07 03:04:55;;;;;;;1.13;0.52;;;8.80;96.70;;;;;;5000214;28;20070;-80
2020/12/07 03:07:23;;;;;;;0.80;0.22;;;8.80;96.70;;;;;;5000159;28;20042;-80
2020/12/07 03:09:55;;;;;;;0.43;0.20;;;8.80;96.70;;;;;;4993124;28;20045;-80
2020/12/07 03:12:26;;;;;;;0.32;0.20;;;8.80;96.70;;;;;;4999180;28;20030;-80
2020/12/07 03:14:55;;;;;;;0.95;0.20;;;8.60;96.70;;;;;;5000169;28;20056;-81
2020/12/07 03:17:24;;;;;;;0.85;0.35;;;8.60;96.70;;;;;;4984162;28;20046;-81
2020/12/07 03:19:51;;;;;;;0.82;0.25;;;8.60;96.70;;;;;;4997311;28;20590;-80
2020/12/07 03:22:18;;;;;;;0.90;0.30;;;8.60;96.70;;;;;;5000103;28;20439;-80
2020/12/07 03:24:46;;;;;;;2.03;0.50;;;8.60;96.70;;;;;;4997295;28;20162;-80
2020/12/07 03:27:14;;;;;;;0.95;0.30;;;8.40;96.70;;;;;;4997572;28;20050;-80
2020/12/07 03:29:41;;;;;;;0.68;0.35;;;8.40;96.70;;;;;;4997802;28;20424;-80
2020/12/07 03:32:08;;;;;;;1.38;0.20;;;8.40;96.70;;;;;;4999943;28;20044;-80
2020/12/07 03:34:37;;;;;;;0.55;0.20;;;8.40;96.70;;;;;;4999007;28;20464;-80
2020/12/07 03:37:04;;;;;;;0.60;0.20;;;8.30;96.70;;;;;;4998660;28;20108;-80
2020/12/07 03:39:46;;;;;;;0.57;0.20;;;8.40;96.70;;;;;;4998704;28;20492;-80
2020/12/07 03:42:13;;;;;;;0.60;0.30;;;8.40;96.70;;;;;;4998769;28;20046;-80
2020/12/07 03:44:42;;;;;;;1.35;0.30;;;8.40;96.70;;;;;;5000069;28;20390;-80
2020/12/07 03:47:11;;;;;;;1.67;0.25;;;8.30;96.70;;;;;;4992765;28;20050;-80
2020/12/07 03:49:38;;;;;;;1.08;0.20;;;8.40;96.70;;;;;;4998963;28;20057;-80
2020/12/07 03:52:07;;;;;;;1.55;0.20;;;8.20;96.70;;;;;;4994174;28;20050;-80
2020/12/07 03:54:34;;;;;;;1.27;0.20;;;8.20;96.70;;;;;;4993658;28;20359;-80
2020/12/07 03:57:03;;;;;;;0.20;0.10;;;8.10;96.70;;;;;;4996553;28;20050;-80
2020/12/07 03:59:34;;;;;;;0.47;0.17;;;8.00;96.70;;;;;;4999546;28;20037;-80
2020/12/07 04:02:04;;;;;;;0.85;0.20;;;8.10;96.70;;;;;;4997674;28;20260;-80
2020/12/07 04:04:46;;;;;;;0.60;0.40;;;8.10;96.70;;;;;;4999431;28;20065;-80
2020/12/07 04:07:14;;;;;;;1.42;0.82;;;8.20;96.70;;;;;;4994285;28;20559;-79
2020/12/07 04:09:41;;;;;;;0.93;0.40;;;8.10;96.70;;;;;;5003494;28;20049;-80
2020/12/07 04:12:09;;;;;;;1.10;0.47;;;8.10;96.70;;;;;;5000166;28;20046;-80
2020/12/07 04:14:36;;;;;;;1.08;0.32;;;8.10;96.70;;;;;;4997353;28;20038;-80
2020/12/07 04:17:03;;;;;;;2.20;0.30;;;8.00;96.70;;;;;;4998893;28;20037;-81
2020/12/07 04:19:30;;;;;;;1.55;0.38;;;7.90;96.70;;;;;;4985239;28;20106;-81
2020/12/07 04:21:59;;;;;;;0.60;0.20;;;8.00;96.70;;;;;;5001158;28;20209;-80
2020/12/07 04:24:26;;;;;;;0.30;0.15;;;7.90;96.70;;;;;;5001414;28;20037;-80
2020/12/07 04:26:54;;;;;;;1.52;0.30;;;7.90;96.70;;;;;;4983394;28;20052;-80
2020/12/07 04:29:22;;;;;;;1.20;0.28;;;7.90;96.70;;;;;;4981709;28;20141;-80
2020/12/07 04:31:49;;;;;;;0.22;0.20;;;7.90;96.70;;;;;;4996621;28;20042;-79
2020/12/07 04:34:16;;;;;;;0.98;0.20;;;8.00;96.70;;;;;;4996209;28;20046;-79
2020/12/07 04:36:43;;;;;;;0.60;0.20;;;7.90;96.70;;;;;;4986400;28;20053;-79
2020/12/07 04:39:10;;;;;;;1.20;0.20;;;8.00;96.70;;;;;;4987119;28;20581;-80
2020/12/07 04:41:40;;;;;;;1.10;0.20;;;7.90;96.70;;;;;;5001684;28;20054;-80
2020/12/07 04:44:08;;;;;;;1.65;0.32;;;7.90;96.70;;;;;;4992266;28;20168;-79
2020/12/07 04:46:36;;;;;;;2.03;0.38;;;7.90;96.70;;;;;;5015567;28;20168;-80
2020/12/07 04:49:04;;;;;;;1.08;0.40;;;7.90;96.70;;;;;;5016031;28;20539;-80
2020/12/07 04:51:32;;;;;;;1.48;0.50;;;7.90;96.70;;;;;;4995810;28;20038;-80
2020/12/07 04:54:01;;;;;;;1.17;0.50;;;7.90;96.70;;;;;;5001532;28;20917;-80
2020/12/07 04:56:28;;;;;;;0.57;0.30;;;7.90;96.70;;;;;;5007342;28;20041;-80
2020/12/07 04:58:56;;;;;;;2.72;0.20;;;8.00;96.70;;;;;;5001895;28;20046;-90
2020/12/07 05:01:24;;;;;;;0.95;0.30;;;8.00;96.70;;;;;;4989520;28;20050;-81
2020/12/07 05:03:52;;;;;;;0.17;0.17;;;8.10;96.70;;;;;;4999577;28;20157;-80
2020/12/07 05:06:20;;;;;;;2.70;0.50;;;8.00;96.70;;;;;;5001281;28;20041;-80
2020/12/07 05:08:47;;;;;;;1.55;0.20;;;7.90;96.70;;;;;;4997781;28;20042;-81
2020/12/07 05:11:14;;;;;;;0.40;0.20;;;7.90;96.70;;;;;;5001758;28;20061;-80
2020/12/07 05:13:48;;;;;;;1.08;0.10;;;7.90;96.70;;;;;;5000541;28;20397;-80
2020/12/07 05:16:16;;;;;;;0.60;0.20;;;7.80;96.70;;;;;;5001082;28;20065;-79
2020/12/07 05:18:43;;;;;;;1.90;0.32;;;7.80;96.70;;;;;;4995740;28;20413;-80
2020/12/07 05:21:11;;;;;;;1.73;0.35;;;7.90;96.70;;;;;;4990670;28;20064;-80
2020/12/07 05:23:41;;;;;;;1.30;0.30;;;8.00;96.70;;;;;;4997526;28;20574;-80
2020/12/07 05:26:10;;;;;;;2.30;0.40;;;8.00;96.70;;;;;;4998827;28;20448;-80
2020/12/07 05:28:42;;;;;;;1.17;0.50;;;8.00;96.70;;;;;;4995212;28;20037;-80
2020/12/07 05:31:15;;;;;;;0.80;0.30;;;8.00;96.70;;;;;;4989470;28;20110;-80
2020/12/07 05:33:42;;;;;;;0.88;0.40;;;8.00;96.70;;;;;;5026197;28;20083;-80
2020/12/07 05:36:13;;;;;;;0.50;0.20;;;8.00;96.70;;;;;;4985280;28;20065;-80
2020/12/07 05:38:42;;;;;;;1.13;0.30;;;8.00;96.70;;;;;;5000653;28;20049;-81
2020/12/07 05:41:11;;;;;;;1.63;0.32;;;7.90;96.70;;;;;;5000439;28;20046;-80
2020/12/07 05:43:39;;;;;;;1.55;0.52;;;7.90;96.70;;;;;;5000085;28;20163;-80
2020/12/07 05:46:07;;;;;;;2.03;0.60;;;7.90;96.70;;;;;;5000032;28;20060;-80
2020/12/07 05:48:35;;;;;;;2.05;0.20;;;7.90;96.70;;;;;;4998249;28;20049;-80
2020/12/07 05:51:05;;;;;;;1.10;0.40;;;7.90;96.70;;;;;;4999020;28;20042;-80
2020/12/07 05:53:36;;;;;;;0.90;0.30;;;7.80;96.70;;;;;;4997638;28;20045;-79
2020/12/07 05:56:05;;;;;;;0.73;0.28;;;7.80;96.70;;;;;;4998977;28;20046;-80
2020/12/07 05:58:42;;;;;;;1.05;0.40;;;7.80;96.70;;;;;;4994773;28;20042;-80
2020/12/07 06:01:16;;;;;;;0.77;0.40;;;7.80;96.70;;;;;;5000601;28;20099;-80
2020/12/07 06:03:44;;;;;;;1.35;0.38;;;7.80;96.70;;;;;;5004381;28;20080;-80
2020/12/07 06:06:11;;;;;;;2.45;0.70;;;7.70;96.70;;;;;;4997829;28;20042;-80
2020/12/07 06:08:40;;;;;;;2.22;0.50;;;7.70;96.70;;;;;;4998624;28;20100;-80
2020/12/07 06:11:10;;;;;;;1.35;0.70;;;7.70;96.70;;;;;;4998450;28;20042;-80
2020/12/07 06:13:40;;;;;;;1.05;0.40;;;7.70;96.70;;;;;;5013753;28;20065;-79
2020/12/07 06:16:07;;;;;;;1.27;0.43;;;7.70;96.70;;;;;;4996187;28;20049;-80
2020/12/07 06:18:35;;;;;;;1.00;0.50;;;7.70;96.70;;;;;;4997781;28;20523;-80
2020/12/07 06:21:04;;;;;;;1.73;0.40;;;7.70;96.70;;;;;;4978872;28;20049;-80
2020/12/07 06:23:34;;;;;;;1.67;0.40;;;7.70;96.70;;;;;;5002668;28;20041;-81
2020/12/07 06:26:03;;;;;;;1.90;0.40;;;7.60;96.70;;;;;;4993804;28;20511;-80
2020/12/07 06:28:32;;;;;;;2.95;0.45;;;7.70;96.70;;;;;;5000001;28;20125;-80
2020/12/07 06:31:03;;;;;;;1.55;0.50;;;7.70;96.70;;;;;;4997473;28;20100;-81
2020/12/07 06:33:37;;;;;;;2.05;0.50;;;7.70;96.70;;;;;;4996726;28;20069;-80
2020/12/07 06:36:05;;;;;;;2.00;0.43;;;7.60;96.70;;;;;;4998390;28;20046;-80
2020/12/07 06:38:41;;;;;;;2.95;0.73;;;7.60;96.70;;;;;;4983018;28;20048;-80
2020/12/07 06:41:10;;;;;;;1.48;0.40;;;7.60;96.70;;;;;;4976290;28;20057;-80
2020/12/07 06:43:37;;;;;;;1.88;1.15;;;7.70;96.70;;;;;;4999900;28;20053;-80
2020/12/07 06:46:04;;;;;;;2.15;0.50;;;7.70;96.70;;;;;;4998309;28;20045;-80
2020/12/07 06:48:36;;;;;;;2.25;0.60;;;7.70;96.70;;;;;;4998668;28;20306;-80
2020/12/07 06:51:03;;;;;;;1.58;0.30;;;7.70;96.70;;;;;;5001133;28;20046;-81
2020/12/07 06:56:00;;;;;;;1.60;0.63;;;7.80;96.70;;;;;;4999231;28;20052;-78
2020/12/07 06:58:32;;;;;;;4.05;0.70;;;7.80;96.70;;;;;;4982505;28;20042;-82
2020/12/07 07:01:15;;;;;;;4.55;0.85;;;7.80;96.70;;;;;;4998983;28;20038;-80
2020/12/07 07:03:50;;;;;;;1.58;0.90;;;7.80;96.70;;;;;;4979299;28;20054;-80
2020/12/07 07:06:19;;;;;;;5.00;0.68;;;7.90;96.70;;;;;;5009195;28;20033;-81
2020/12/07 07:08:47;;;;;;;1.55;0.70;;;7.90;96.70;;;;;;4996159;28;20038;-81
2020/12/07 07:11:16;;;;;;;3.03;0.82;;;8.00;96.70;;;;;;5011663;28;20049;-79
2020/12/07 07:13:51;;;;;;;2.97;0.77;;;8.00;96.70;;;;;;4979135;28;20056;-80
2020/12/07 07:16:19;;;;;;;2.15;0.60;;;8.00;96.70;;;;;;4996177;28;20280;-80
2020/12/07 07:18:46;;;;;;;1.42;0.40;;;8.10;96.70;;;;;;4994737;28;20508;-84
2020/12/07 07:21:14;;;;;;;3.10;0.68;;;8.10;96.70;;;;;;4982464;28;20088;-81
2020/12/07 07:23:43;;;;;;;3.28;0.90;;;8.20;96.70;;;;;;4994156;28;20034;-82
2020/12/07 07:26:19;;;;;;;2.45;0.73;;;8.20;96.70;;;;;;4998333;28;20108;-80
2020/12/07 07:28:47;;;;;;;1.02;0.38;;;8.20;96.70;;;;;;5005340;28;20066;-80
2020/12/07 07:31:15;;;;;;;2.58;0.50;;;8.30;96.70;;;;;;4984028;28;20034;-81
2020/12/07 07:33:42;;;;;;;0.82;0.65;;;8.40;96.70;;;;;;4977477;28;20049;-80
2020/12/07 07:36:21;;;;;;;3.03;0.70;;;8.50;96.70;;;;;;4996315;28;20140;-80
2020/12/07 07:38:52;;;;;;;1.38;0.30;;;8.50;96.70;;;;;;4995054;28;20087;-78
2020/12/07 07:41:23;;;;;;;1.13;0.43;;;8.60;96.70;;;;;;5000441;28;20038;-84
2020/12/07 07:43:50;;;;;;;30.98;18.17;;;8.70;96.70;;;;;;4999275;28;20041;-84
2020/12/07 07:46:19;;;;;;;19.20;13.45;;;8.80;96.70;;;;;;5004042;28;20530;-88
2020/12/07 08:17:48;;;;;;;2.00;1.25;;;8.80;96.70;;;;;;5029747;28;20038;-81
2020/12/07 08:20:17;;;;;;;1.65;1.15;;;8.70;96.70;;;;;;5027524;28;20065;-81
2020/12/07 08:22:55;;;;;;;2.35;1.25;;;8.70;96.70;;;;;;5001567;28;20038;-80
2020/12/07 08:25:45;;;;;;;1.98;0.95;;;8.70;96.70;;;;;;4985797;28;20042;-81
2020/12/07 08:28:18;;;;;;;1.60;1.10;;;8.70;96.70;;;;;;5002076;28;20531;-81
2020/12/07 08:31:08;;;;;;;2.65;1.60;;;8.70;96.70;;;;;;4997956;28;20073;-82
2020/12/07 08:33:39;;;;;;;2.05;1.30;;;8.70;96.70;;;;;;5033821;28;20053;-83
2020/12/07 08:36:08;;;;;;;3.20;1.40;;;8.60;96.70;;;;;;4999506;28;20046;-83
2020/12/07 08:38:37;;;;;;;3.28;1.70;;;8.60;96.70;;;;;;5003042;28;20637;-84
2020/12/07 08:41:08;;;;;;;3.67;1.90;;;8.60;96.70;;;;;;5000457;28;20383;-82
2020/12/07 08:43:37;;;;;;;3.95;2.35;;;8.70;96.70;;;;;;4998674;28;20407;-81
2020/12/07 08:46:05;;;;;;;2.58;1.65;;;8.70;96.70;;;;;;4997064;28;20133;-82
2020/12/07 08:48:33;;;;;;;3.78;1.67;;;8.80;96.70;;;;;;5001515;28;20044;-80
2020/12/07 08:51:01;;;;;;;2.75;1.50;;;8.80;96.70;;;;;;4982362;28;20041;-81
2020/12/07 08:53:29;;;;;;;5.20;1.60;;;8.90;96.70;;;;;;4999500;28;20041;-80
2020/12/07 08:55:58;;;;;;;5.07;2.38;;;9.00;96.70;;;;;;5002406;28;20045;-80
2020/12/07 08:58:25;;;;;;;5.55;3.00;;;9.20;96.70;;;;;;5001471;28;20064;-84
2020/12/07 09:00:52;;;;;;;4.22;2.00;;;9.50;96.70;;;;;;5001357;28;20046;-90
2020/12/07 09:03:20;;;;;;;2.20;1.63;;;9.60;96.70;;;;;;4985487;28;20609;-81
2020/12/07 09:05:47;;;;;;;44.03;32.28;;;9.60;96.70;;;;;;5001646;28;20042;-81
2020/12/07 09:08:15;;;;;;;8.70;5.53;;;9.60;96.70;;;;;;5004812;28;20140;-86
2020/12/07 09:10:42;;;;;;;8.27;3.95;;;9.70;96.70;;;;;;5001570;28;20065;-85
2020/12/07 09:13:09;;;;;;;10.38;4.55;;;9.80;96.70;;;;;;5003290;28;20041;-85
2020/12/07 09:15:36;;;;;;;13.27;5.38;;;9.90;96.70;;;;;;5002644;28;20401;-86
2020/12/07 09:18:04;;;;;;;11.70;5.45;;;10.00;96.70;;;;;;5002894;28;20064;-85
2020/12/07 09:20:31;;;;;;;6.93;2.50;;;10.10;96.70;;;;;;5002538;28;20520;-85
2020/12/07 09:22:58;;;;;;;6.95;3.05;;;10.10;96.70;;;;;;5003124;28;20464;-84
2020/12/07 09:25:29;;;;;;;6.30;3.50;;;10.20;96.70;;;;;;5004858;28;20495;-82
2020/12/07 09:27:56;;;;;;;5.68;1.63;;;10.20;96.70;;;;;;4998860;28;20046;-82
2020/12/07 09:30:23;;;;;;;3.88;1.65;;;10.30;96.70;;;;;;5002402;28;20042;-87
2020/12/07 09:32:50;;;;;;;3.08;1.35;;;10.40;96.70;;;;;;5002768;28;20127;-86
2020/12/07 09:35:18;;;;;;;5.35;1.30;;;10.40;96.70;;;;;;4977738;28;20119;-86
2020/12/07 09:37:46;;;;;;;1.98;0.80;;;10.50;96.70;;;;;;4998773;28;20049;-85
2020/12/07 09:40:13;;;;;;;2.35;1.10;;;10.60;96.70;;;;;;4987956;28;20420;-86
2020/12/07 09:42:41;;;;;;;2.72;1.10;;;10.50;96.70;;;;;;4986470;28;20427;-87
2020/12/07 09:45:09;;;;;;;2.45;1.13;;;10.50;96.70;;;;;;5002750;28;20038;-86
2020/12/07 09:47:37;;;;;;;2.58;1.45;;;10.40;96.70;;;;;;5003789;28;20041;-86
2020/12/07 09:50:06;;;;;;;6.72;2.88;;;10.40;96.70;;;;;;4984809;28;20034;-87
2020/12/07 09:52:33;;;;;;;6.60;3.13;;;10.30;96.70;;;;;;5003420;28;20052;-86
2020/12/07 09:55:00;;;;;;;4.15;2.03;;;10.30;96.70;;;;;;5002838;28;20794;-86
2020/12/07 09:57:28;;;;;;;4.55;1.88;;;10.30;96.70;;;;;;5003379;28;20440;-83
2020/12/07 09:59:56;;;;;;;4.70;1.52;;;10.40;96.70;;;;;;4985300;28;20046;-85
2020/12/07 10:02:23;;;;;;;6.72;3.40;;;10.50;96.70;;;;;;5003943;28;20068;-85
2020/12/07 10:04:51;;;;;;;4.60;2.85;;;10.60;96.70;;;;;;4985243;28;20053;-84
2020/12/07 10:07:18;;;;;;;10.32;8.20;;;10.70;96.70;;;;;;5001606;28;20134;-84
2020/12/07 10:09:45;;;;;;;6.65;4.43;;;10.80;96.70;;;;;;4999087;28;20238;-82
2020/12/07 10:12:13;;;;;;;6.43;3.83;;;10.90;96.70;;;;;;5003696;28;20460;-85
2020/12/07 10:14:40;;;;;;;7.70;4.25;;;11.10;96.70;;;;;;5000362;28;20042;-84
2020/12/07 10:17:08;;;;;;;6.68;3.83;;;11.30;96.70;;;;;;4999181;28;20135;-84
2020/12/07 10:19:35;;;;;;;12.32;7.13;;;11.40;96.70;;;;;;4997801;28;20086;-83
2020/12/07 10:22:04;;;;;;;5.80;2.40;;;11.60;96.70;;;;;;4985953;28;20101;-83
2020/12/07 10:24:32;;;;;;;6.72;3.58;;;11.80;96.70;;;;;;4997550;28;20133;-88
2020/12/07 10:26:59;;;;;;;5.95;3.55;;;11.90;96.70;;;;;;4986573;28;20623;-89
2020/12/07 10:29:26;;;;;;;7.65;3.78;;;11.90;96.70;;;;;;5006044;28;20109;-84
2020/12/07 10:31:56;;;;;;;6.88;2.13;;;11.90;96.70;;;;;;5000046;28;20049;-83
2020/12/07 10:34:24;;;;;;;3.60;1.70;;;11.80;96.70;;;;;;4985315;28;20046;-85
2020/12/07 10:36:51;;;;;;;4.90;1.35;;;11.80;96.70;;;;;;4987677;28;20056;-85
2020/12/07 10:39:18;;;;;;;6.00;1.90;;;11.90;96.70;;;;;;4985122;28;20455;-85
2020/12/07 10:41:45;;;;;;;7.35;2.10;;;12.00;96.70;;;;;;5001385;28;20050;-83
2020/12/07 10:44:12;;;;;;;12.80;8.50;;;12.00;96.20;;;;;;4997040;28;20503;-81
2020/12/07 10:46:39;;;;;;;11.60;8.02;;;12.00;95.80;;;;;;5000052;28;20076;-84
2020/12/07 10:49:07;;;;;;;6.03;3.45;;;12.00;96.70;;;;;;5031518;28;20465;-82
2020/12/07 10:51:35;;;;;;;5.15;2.72;;;12.00;96.70;;;;;;4999850;28;20048;-84
2020/12/07 10:54:02;;;;;;;3.25;1.50;;;11.90;96.70;;;;;;4985727;28;20045;-84
2020/12/07 10:56:29;;;;;;;2.92;1.98;;;11.90;96.70;;;;;;5002967;28;20046;-82
2020/12/07 10:58:56;;;;;;;16.98;9.52;;;11.80;96.70;;;;;;5014873;28;20033;-82
2020/12/07 11:01:24;;;;;;;6.55;3.35;;;12.10;96.70;;;;;;4997228;28;20089;-82
2020/12/07 11:03:51;;;;;;;5.90;2.90;;;12.40;96.70;;;;;;4999854;28;20089;-83
2020/12/07 11:06:21;;;;;;;12.00;6.05;;;12.60;96.30;;;;;;5001173;28;20060;-86
2020/12/07 11:08:53;;;;;;;7.90;3.40;;;12.70;96.60;;;;;;4997338;28;20500;-87
2020/12/07 11:11:21;;;;;;;2.65;1.20;;;12.70;95.70;;;;;;4986390;28;20056;-83
2020/12/07 11:13:50;;;;;;;10.80;2.33;;;12.60;94.70;;;;;;4998764;28;20030;-81
2020/12/07 11:16:22;;;;;;;14.02;9.07;;;12.70;92.40;;;;;;4982822;28;20053;-81
2020/12/07 11:18:50;;;;;;;4.18;2.95;;;12.60;94.10;;;;;;4981841;28;20057;-83
2020/12/07 11:21:18;;;;;;;5.50;1.65;;;12.50;93.90;;;;;;5001503;28;20041;-88
2020/12/07 11:23:47;;;;;;;7.25;3.17;;;12.40;94.00;;;;;;4984555;28;20052;-81
2020/12/07 11:26:16;;;;;;;7.22;4.63;;;12.30;94.90;;;;;;4983953;28;20519;-82
2020/12/07 11:28:44;;;;;;;8.25;4.57;;;12.20;94.70;;;;;;5000654;28;20061;-88
2020/12/07 11:31:13;;;;;;;7.63;3.85;;;12.10;94.50;;;;;;5003188;28;20066;-89
2020/12/07 11:33:42;;;;;;;6.22;1.80;;;12.10;95.10;;;;;;4999792;28;20046;-85
2020/12/07 11:36:15;;;;;;;8.38;5.47;;;12.00;94.30;;;;;;4999786;28;20049;-84
2020/12/07 11:43:55;;;;;;;14.25;9.88;;;12.00;96.70;;;;;;4993808;28;20034;-82
2020/12/07 11:46:31;;;;;;;9.05;4.95;;;12.00;96.50;;;;;;4999093;28;20045;-83
2020/12/07 11:49:00;;;;;;;31.80;21.92;;;12.00;95.60;;;;;;4996234;28;20130;-83
2020/12/07 11:51:28;;;;;;;3.67;1.60;;;12.10;96.00;;;;;;4988440;28;20392;-85
2020/12/07 11:53:55;;;;;;;3.38;1.10;;;12.10;95.90;;;;;;5000674;28;20061;-84
2020/12/07 11:56:27;;;;;;;3.35;1.27;;;12.20;91.00;;;;;;4999582;28;20136;-85
2020/12/07 11:58:55;;;;;;;3.40;1.33;;;12.30;87.70;;;;;;4997957;28;20132;-84
2020/12/07 12:01:23;;;;;;;5.53;1.23;;;12.20;85.80;;;;;;4998897;28;20050;-83
2020/12/07 12:03:50;;;;;;;3.75;0.90;;;12.10;88.20;;;;;;5000485;28;20042;-85
2020/12/07 12:06:25;;;;;;;1.30;1.00;;;11.90;89.10;;;;;;4999974;28;20045;-86
2020/12/07 12:08:54;;;;;;;4.50;1.25;;;11.80;90.00;;;;;;4999286;28;20060;-82
2020/12/07 12:11:27;;;;;;;5.25;2.97;;;11.70;91.10;;;;;;4997936;28;20046;-85
2020/12/07 12:13:55;;;;;;;8.07;5.10;;;11.60;93.10;;;;;;5016581;28;20288;-84
2020/12/07 12:16:24;;;;;;;24.38;14.30;;;11.50;92.20;;;;;;5015466;28;20065;-84
2020/12/07 12:19:02;;;;;;;4.70;2.65;;;11.60;91.80;;;;;;4999165;28;20061;-83
2020/12/07 12:21:30;;;;;;;3.75;1.55;;;11.60;92.10;;;;;;4997750;28;20038;-81
2020/12/07 12:24:01;;;;;;;3.58;1.17;;;11.50;93.40;;;;;;4986540;28;20050;-83
2020/12/07 12:26:29;;;;;;;3.47;1.73;;;11.40;93.60;;;;;;5001061;28;20116;-80
2020/12/07 12:28:58;;;;;;;4.93;1.98;;;11.40;94.90;;;;;;5000584;28;20042;-84
2020/12/07 12:31:25;;;;;;;2.85;1.33;;;11.30;94.70;;;;;;4986362;28;20138;-84
2020/12/07 12:33:55;;;;;;;4.70;1.15;;;11.20;94.10;;;;;;4983588;28;20496;-85
2020/12/07 12:36:24;;;;;;;6.57;4.32;;;11.30;89.80;;;;;;4986450;28;20124;-81
2020/12/07 12:38:52;;;;;;;3.33;1.27;;;11.30;90.30;;;;;;4987190;28;20117;-80
2020/12/07 12:41:21;;;;;;;2.88;1.30;;;11.30;89.20;;;;;;4988485;28;20495;-81
2020/12/07 12:43:48;;;;;;;2.28;1.30;;;11.10;89.20;;;;;;5003902;28;20145;-82
2020/12/07 12:46:17;;;;;;;3.47;1.60;;;11.00;90.50;;;;;;5003221;28;20100;-81
2020/12/07 12:48:44;;;;;;;2.65;1.60;;;11.10;91.20;;;;;;5001516;28;20089;-82
2020/12/07 12:51:13;;;;;;;2.47;1.50;;;11.10;92.70;;;;;;5001230;28;20512;-81
2020/12/07 12:53:40;;;;;;;3.63;0.85;;;11.00;92.90;;;;;;5001124;28;20073;-79
2020/12/07 12:56:09;;;;;;;2.58;0.63;;;10.90;93.40;;;;;;4999417;28;20161;-79
2020/12/07 12:58:37;;;;;;;1.08;0.90;;;10.90;94.30;;;;;;5002962;28;20104;-80
2020/12/07 13:01:05;;;;;;;2.40;0.90;;;10.90;94.70;;;;;;5006901;28;20117;-81
2020/12/07 13:03:33;;;;;;;3.72;2.47;;;10.90;95.10;;;;;;5000693;28;20034;-80
2020/12/07 13:06:01;;;;;;;3.85;1.00;;;10.80;95.70;;;;;;5000845;28;20123;-87
2020/12/07 13:08:28;;;;;;;2.72;1.15;;;10.70;95.80;;;;;;5000598;28;20092;-84
2020/12/07 13:10:56;;;;;;;5.20;2.72;;;10.70;96.70;;;;;;5004476;28;20045;-85
2020/12/07 13:13:23;;;;;;;12.52;7.18;;;10.70;96.40;;;;;;5001728;28;20575;-86
2020/12/07 13:15:56;;;;;;;5.95;2.35;;;10.60;96.70;;;;;;5002911;28;20355;-82
2020/12/07 13:18:24;;;;;;;6.40;2.60;;;10.60;96.70;;;;;;5000746;28;20056;-83
2020/12/07 13:21:03;;;;;;;1.50;0.50;;;10.50;96.70;;;;;;4997542;28;20128;-80
2020/12/07 13:23:38;;;;;;;1.13;0.65;;;10.30;95.70;;;;;;5001159;28;20510;-83
2020/12/07 13:26:39;;;;;;;4.30;0.70;;;10.30;94.40;;;;;;4984262;28;20050;-82
2020/12/07 13:29:23;;;;;;;1.40;0.22;;;10.00;96.70;;;;;;5003121;28;20199;-81
2020/12/07 13:32:20;;;;;;;3.42;1.75;;;10.00;94.10;;;;;;4997151;28;20317;-82
2020/12/07 13:35:18;;;;;;;1.75;0.85;;;10.10;96.70;;;;;;4981435;28;20053;-79
2020/12/07 13:37:56;;;;;;;1.57;0.73;;;10.10;96.70;;;;;;4998261;28;20046;-81
2020/12/07 13:40:23;;;;;;;0.85;0.50;;;10.30;96.70;;;;;;4999449;28;20092;-82